Terminal Aerodrome Forecast
Issued by NWS

Current Version | Previous Version | Text Only | Print | Product List | Glossary On
Versions: 1 2 3 4 5 6 7 8 9 10 11 12 13 14 15 16 17 18 19 20 21 22 23 24 25 26
000 FTUS41 KBOX 240905 AAA TAFBED TAF AMD KBED 240905Z 2409/2506 17004KT P6SM BKN005 FM241000 14007KT 5SM -RA BR OVC060 WS020/17035KT FM241200 15010G28KT 3SM RA BR OVC010 WS020/17045KT FM241500 17013G27KT P6SM OVC010 FM250100 20012G29KT P6SM BKN250 FM250400 21010G21KT P6SM BKN250=

USA.gov is the U.S. government's official web portal to all federal, state and local government web resources and services.